sensor_id;sensor_type;location;lat;lon;timestamp;pressure;altitude;pressure_sealevel;temperature;humidity
61710;BME280;47633;51.494;5.386;2022-12-29T00:01:47;99991.66;;;19.10;45.70
61710;BME280;47633;51.494;5.386;2022-12-29T00:04:14;99977.78;;;19.08;45.84
61710;BME280;47633;51.494;5.386;2022-12-29T00:06:39;99993.47;;;19.09;45.86
61710;BME280;47633;51.494;5.386;2022-12-29T00:09:05;99999.72;;;19.08;45.72
61710;BME280;47633;51.494;5.386;2022-12-29T00:11:30;99978.75;;;19.07;45.77
61710;BME280;47633;51.494;5.386;2022-12-29T00:13:55;99967.38;;;19.06;45.65
61710;BME280;47633;51.494;5.386;2022-12-29T00:16:42;99960.41;;;19.05;45.65
61710;BME280;47633;51.494;5.386;2022-12-29T00:19:08;99966.00;;;19.02;45.68
61710;BME280;47633;51.494;5.386;2022-12-29T00:21:53;99959.91;;;19.01;45.86
61710;BME280;47633;51.494;5.386;2022-12-29T00:24:37;99957.09;;;19.03;45.86
61710;BME280;47633;51.494;5.386;2022-12-29T00:27:21;99940.75;;;18.99;45.69
61710;BME280;47633;51.494;5.386;2022-12-29T00:30:11;99930.47;;;18.96;45.78
61710;BME280;47633;51.494;5.386;2022-12-29T00:32:56;99938.56;;;18.95;45.88
61710;BME280;47633;51.494;5.386;2022-12-29T00:35:50;99947.97;;;18.97;45.64
61710;BME280;47633;51.494;5.386;2022-12-29T00:38:17;99955.06;;;18.97;45.76
61710;BME280;47633;51.494;5.386;2022-12-29T00:41:01;99946.31;;;18.96;45.70
61710;BME280;47633;51.494;5.386;2022-12-29T00:43:45;99934.25;;;18.94;45.72
61710;BME280;47633;51.494;5.386;2022-12-29T00:46:29;99937.69;;;18.94;45.87
61710;BME280;47633;51.494;5.386;2022-12-29T00:48:54;99926.63;;;18.91;45.94
61710;BME280;47633;51.494;5.386;2022-12-29T00:51:38;99930.25;;;18.90;45.96
61710;BME280;47633;51.494;5.386;2022-12-29T00:54:03;99928.28;;;18.92;45.95
61710;BME280;47633;51.494;5.386;2022-12-29T00:56:28;99923.16;;;18.90;45.79
61710;BME280;47633;51.494;5.386;2022-12-29T00:58:54;99918.84;;;18.89;45.97
61710;BME280;47633;51.494;5.386;2022-12-29T01:01:19;99931.09;;;18.90;46.16
61710;BME280;47633;51.494;5.386;2022-12-29T01:03:44;99911.13;;;18.78;46.03
61710;BME280;47633;51.494;5.386;2022-12-29T01:06:11;99911.91;;;18.88;46.15
61710;BME280;47633;51.494;5.386;2022-12-29T01:08:36;99906.78;;;18.87;46.24
61710;BME280;47633;51.494;5.386;2022-12-29T01:11:12;99893.88;;;18.83;46.10
61710;BME280;47633;51.494;5.386;2022-12-29T01:13:38;99902.50;;;18.85;46.08
61710;BME280;47633;51.494;5.386;2022-12-29T01:16:06;99888.75;;;18.82;46.31
61710;BME280;47633;51.494;5.386;2022-12-29T01:18:31;99898.19;;;18.84;46.19
61710;BME280;47633;51.494;5.386;2022-12-29T01:21:01;99902.78;;;18.82;46.22
61710;BME280;47633;51.494;5.386;2022-12-29T01:23:28;99902.78;;;18.82;46.26
61710;BME280;47633;51.494;5.386;2022-12-29T01:25:53;99895.81;;;18.81;46.25
61710;BME280;47633;51.494;5.386;2022-12-29T01:28:18;99895.00;;;18.81;46.43
61710;BME280;47633;51.494;5.386;2022-12-29T01:30:44;99884.75;;;18.78;46.32
61710;BME280;47633;51.494;5.386;2022-12-29T01:33:09;99880.28;;;18.78;46.32
61710;BME280;47633;51.494;5.386;2022-12-29T01:35:34;99887.22;;;18.79;46.37
61710;BME280;47633;51.494;5.386;2022-12-29T01:37:59;99888.19;;;18.78;46.25
61710;BME280;47633;51.494;5.386;2022-12-29T01:40:25;99880.44;;;18.77;46.32
61710;BME280;47633;51.494;5.386;2022-12-29T01:42:50;99884.22;;;18.74;46.19
61710;BME280;47633;51.494;5.386;2022-12-29T01:45:17;99880.59;;;18.75;46.21
61710;BME280;47633;51.494;5.386;2022-12-29T01:47:53;99866.06;;;18.71;46.13
61710;BME280;47633;51.494;5.386;2022-12-29T01:50:31;99888.50;;;18.75;46.20
61710;BME280;47633;51.494;5.386;2022-12-29T01:53:03;99884.69;;;18.70;46.06
61710;BME280;47633;51.494;5.386;2022-12-29T01:55:35;99889.50;;;18.74;46.24
61710;BME280;47633;51.494;5.386;2022-12-29T01:58:04;99884.69;;;18.70;46.21
61710;BME280;47633;51.494;5.386;2022-12-29T02:00:31;99899.50;;;18.71;45.95
61710;BME280;47633;51.494;5.386;2022-12-29T02:02:57;99882.19;;;18.68;45.96
61710;BME280;47633;51.494;5.386;2022-12-29T02:05:56;99876.47;;;18.73;46.11
61710;BME280;47633;51.494;5.386;2022-12-29T02:08:26;99881.03;;;18.71;46.07
61710;BME280;47633;51.494;5.386;2022-12-29T02:10:52;99876.25;;;18.66;45.95
61710;BME280;47633;51.494;5.386;2022-12-29T02:13:19;99887.31;;;18.70;46.10
61710;BME280;47633;51.494;5.386;2022-12-29T02:16:10;99876.91;;;18.68;46.12
61710;BME280;47633;51.494;5.386;2022-12-29T02:26:46;99875.41;;;18.65;45.93
61710;BME280;47633;51.494;5.386;2022-12-29T02:29:24;99871.94;;;18.65;45.99
61710;BME280;47633;51.494;5.386;2022-12-29T02:32:00;99862.50;;;18.62;45.94
61710;BME280;47633;51.494;5.386;2022-12-29T02:37:20;99862.50;;;18.62;45.98
61710;BME280;47633;51.494;5.386;2022-12-29T02:40:06;99852.25;;;18.59;46.06
61710;BME280;47633;51.494;5.386;2022-12-29T02:42:47;99852.94;;;18.61;45.89
61710;BME280;47633;51.494;5.386;2022-12-29T02:45:26;99861.00;;;18.60;46.03
61710;BME280;47633;51.494;5.386;2022-12-29T02:50:33;99855.19;;;18.56;46.00
61710;BME280;47633;51.494;5.386;2022-12-29T02:53:02;99858.38;;;18.60;45.94
61710;BME280;47633;51.494;5.386;2022-12-29T02:55:29;99849.09;;;18.56;46.01
61710;BME280;47633;51.494;5.386;2022-12-29T02:58:21;99853.25;;;18.58;45.96
61710;BME280;47633;51.494;5.386;2022-12-29T03:01:16;99849.75;;;18.58;46.02
61710;BME280;47633;51.494;5.386;2022-12-29T03:06:50;99843.00;;;18.55;45.96
61710;BME280;47633;51.494;5.386;2022-12-29T03:11:58;99842.16;;;18.55;45.92
61710;BME280;47633;51.494;5.386;2022-12-29T03:14:46;99846.75;;;18.53;46.00
61710;BME280;47633;51.494;5.386;2022-12-29T03:17:52;99851.56;;;18.57;45.97
61710;BME280;47633;51.494;5.386;2022-12-29T03:20:25;99840.66;;;18.52;46.05
61710;BME280;47633;51.494;5.386;2022-12-29T03:22:56;99845.78;;;18.54;45.65
61710;BME280;47633;51.494;5.386;2022-12-29T03:25:30;99831.88;;;18.52;46.03
61710;BME280;47633;51.494;5.386;2022-12-29T03:27:59;99826.78;;;18.50;46.00
61710;BME280;47633;51.494;5.386;2022-12-29T03:30:28;99834.53;;;18.52;46.07
61710;BME280;47633;51.494;5.386;2022-12-29T03:32:58;99825.94;;;18.49;46.02
61710;BME280;47633;51.494;5.386;2022-12-29T03:35:28;99830.91;;;18.53;45.96
61710;BME280;47633;51.494;5.386;2022-12-29T03:38:15;99826.63;;;18.52;45.98
61710;BME280;47633;51.494;5.386;2022-12-29T03:40:44;99830.91;;;18.53;45.98
61710;BME280;47633;51.494;5.386;2022-12-29T03:43:12;99838.16;;;18.51;45.77
61710;BME280;47633;51.494;5.386;2022-12-29T03:45:38;99837.50;;;18.48;45.72
61710;BME280;47633;51.494;5.386;2022-12-29T03:48:03;99833.84;;;18.49;45.77
61710;BME280;47633;51.494;5.386;2022-12-29T03:50:29;99832.22;;;18.48;45.87
61710;BME280;47633;51.494;5.386;2022-12-29T03:52:54;99843.59;;;18.49;45.44
61710;BME280;47633;51.494;5.386;2022-12-29T03:55:20;99848.06;;;18.48;45.70
61710;BME280;47633;51.494;5.386;2022-12-29T03:57:45;99848.06;;;18.48;45.78
61710;BME280;47633;51.494;5.386;2022-12-29T04:00:11;99861.41;;;18.47;45.66
61710;BME280;47633;51.494;5.386;2022-12-29T04:02:36;99858.91;;;18.45;45.62
61710;BME280;47633;51.494;5.386;2022-12-29T04:05:02;99858.06;;;18.45;45.80
61710;BME280;47633;51.494;5.386;2022-12-29T04:07:27;99850.28;;;18.43;45.81
61710;BME280;47633;51.494;5.386;2022-12-29T04:09:52;99835.84;;;18.47;45.80
61710;BME280;47633;51.494;5.386;2022-12-29T04:12:18;99843.22;;;18.44;45.68
61710;BME280;47633;51.494;5.386;2022-12-29T04:14:43;99856.25;;;18.45;45.79
61710;BME280;47633;51.494;5.386;2022-12-29T04:17:08;99857.38;;;18.43;46.05
61710;BME280;47633;51.494;5.386;2022-12-29T04:19:34;99867.25;;;18.41;45.90
61710;BME280;47633;51.494;5.386;2022-12-29T04:21:59;99881.28;;;18.41;46.01
61710;BME280;47633;51.494;5.386;2022-12-29T04:24:24;99877.53;;;18.44;46.00
61710;BME280;47633;51.494;5.386;2022-12-29T04:26:49;99877.13;;;18.39;45.87
61710;BME280;47633;51.494;5.386;2022-12-29T04:29:15;99879.31;;;18.43;45.79
61710;BME280;47633;51.494;5.386;2022-12-29T04:31:40;99877.81;;;18.41;45.77
61710;BME280;47633;51.494;5.386;2022-12-29T04:34:05;99883.25;;;18.39;45.95
61710;BME280;47633;51.494;5.386;2022-12-29T04:36:30;99877.81;;;18.41;46.00
61710;BME280;47633;51.494;5.386;2022-12-29T04:38:56;99886.84;;;18.38;45.68
61710;BME280;47633;51.494;5.386;2022-12-29T04:41:22;99888.53;;;18.39;45.63
61710;BME280;47633;51.494;5.386;2022-12-29T04:43:47;99881.72;;;18.37;45.42
61710;BME280;47633;51.494;5.386;2022-12-29T04:46:12;99896.72;;;18.36;45.81
61710;BME280;47633;51.494;5.386;2022-12-29T04:48:38;99914.91;;;18.39;45.70
61710;BME280;47633;51.494;5.386;2022-12-29T04:51:03;99900.19;;;18.37;45.76
61710;BME280;47633;51.494;5.386;2022-12-29T04:53:28;99901.34;;;18.34;45.49
61710;BME280;47633;51.494;5.386;2022-12-29T04:55:54;99914.19;;;18.37;45.55
61710;BME280;47633;51.494;5.386;2022-12-29T04:58:20;99899.66;;;18.33;45.54
61710;BME280;47633;51.494;5.386;2022-12-29T05:00:45;99920.31;;;18.38;45.33
61710;BME280;47633;51.494;5.386;2022-12-29T05:03:10;99917.84;;;18.36;45.30
61710;BME280;47633;51.494;5.386;2022-12-29T05:05:36;99917.84;;;18.36;45.42
61710;BME280;47633;51.494;5.386;2022-12-29T05:08:02;99919.63;;;18.36;45.48
61710;BME280;47633;51.494;5.386;2022-12-29T05:10:27;99933.66;;;18.36;45.32
61710;BME280;47633;51.494;5.386;2022-12-29T05:12:52;99930.50;;;18.33;45.20
61710;BME280;47633;51.494;5.386;2022-12-29T05:15:18;99928.97;;;18.30;44.99
61710;BME280;47633;51.494;5.386;2022-12-29T05:17:43;99948.09;;;18.32;44.88
61710;BME280;47633;51.494;5.386;2022-12-29T05:20:09;99935.91;;;18.31;44.92
61710;BME280;47633;51.494;5.386;2022-12-29T05:22:35;99949.94;;;18.31;45.07
61710;BME280;47633;51.494;5.386;2022-12-29T05:25:00;99943.84;;;18.31;44.91
61710;BME280;47633;51.494;5.386;2022-12-29T05:27:25;99945.75;;;18.29;45.21
61710;BME280;47633;51.494;5.386;2022-12-29T05:29:51;99945.75;;;18.29;44.92
61710;BME280;47633;51.494;5.386;2022-12-29T05:32:16;99939.53;;;18.30;45.04
61710;BME280;47633;51.494;5.386;2022-12-29T05:34:41;99954.53;;;18.29;44.93
61710;BME280;47633;51.494;5.386;2022-12-29T05:37:06;99945.91;;;18.27;44.96
61710;BME280;47633;51.494;5.386;2022-12-29T05:39:32;99945.38;;;18.24;45.14
61710;BME280;47633;51.494;5.386;2022-12-29T05:41:57;99960.09;;;18.26;45.08
61710;BME280;47633;51.494;5.386;2022-12-29T05:44:22;99957.31;;;18.28;44.98
61710;BME280;47633;51.494;5.386;2022-12-29T05:46:48;99962.03;;;18.24;44.83
61710;BME280;47633;51.494;5.386;2022-12-29T05:49:13;99979.22;;;18.28;45.00
61710;BME280;47633;51.494;5.386;2022-12-29T05:51:38;99985.47;;;18.27;45.08
61710;BME280;47633;51.494;5.386;2022-12-29T05:54:04;99970.50;;;18.28;44.86
61710;BME280;47633;51.494;5.386;2022-12-29T05:56:29;99980.34;;;18.26;44.58
61710;BME280;47633;51.494;5.386;2022-12-29T05:58:55;99978.84;;;18.23;44.82
61710;BME280;47633;51.494;5.386;2022-12-29T06:01:20;99985.91;;;18.23;44.64
61710;BME280;47633;51.494;5.386;2022-12-29T06:03:45;99967.31;;;18.24;44.58
61710;BME280;47633;51.494;5.386;2022-12-29T06:06:10;99971.75;;;18.24;44.79
61710;BME280;47633;51.494;5.386;2022-12-29T06:08:36;99977.69;;;18.26;44.69
61710;BME280;47633;51.494;5.386;2022-12-29T06:11:01;99979.81;;;18.22;44.93
61710;BME280;47633;51.494;5.386;2022-12-29T06:13:26;99972.56;;;18.24;44.88
61710;BME280;47633;51.494;5.386;2022-12-29T06:15:52;99988.81;;;18.29;45.09
61710;BME280;47633;51.494;5.386;2022-12-29T06:18:17;99976.31;;;18.31;45.08
61710;BME280;47633;51.494;5.386;2022-12-29T06:20:43;99967.28;;;18.34;45.14
61710;BME280;47633;51.494;5.386;2022-12-29T06:23:08;99985.28;;;18.39;45.25
61710;BME280;47633;51.494;5.386;2022-12-29T06:25:34;99980.56;;;18.42;45.17
61710;BME280;47633;51.494;5.386;2022-12-29T06:28:01;99960.94;;;18.45;44.99
61710;BME280;47633;51.494;5.386;2022-12-29T06:30:27;99971.72;;;18.52;45.07
61710;BME280;47633;51.494;5.386;2022-12-29T06:32:52;99974.06;;;18.55;44.91
61710;BME280;47633;51.494;5.386;2022-12-29T06:35:17;99961.59;;;18.57;44.70
61710;BME280;47633;51.494;5.386;2022-12-29T06:37:43;99974.34;;;18.61;44.56
61710;BME280;47633;51.494;5.386;2022-12-29T06:40:09;99958.34;;;18.63;44.67
61710;BME280;47633;51.494;5.386;2022-12-29T06:42:35;99953.06;;;18.63;44.50
61710;BME280;47633;51.494;5.386;2022-12-29T06:45:00;99976.38;;;18.67;44.57
61710;BME280;47633;51.494;5.386;2022-12-29T06:47:26;99969.44;;;18.66;44.42
61710;BME280;47633;51.494;5.386;2022-12-29T06:49:51;99969.44;;;18.66;44.84
61710;BME280;47633;51.494;5.386;2022-12-29T06:52:17;99971.47;;;18.73;44.39
61710;BME280;47633;51.494;5.386;2022-12-29T06:54:42;99959.09;;;18.73;44.47
61710;BME280;47633;51.494;5.386;2022-12-29T06:57:07;99958.81;;;18.76;44.26
61710;BME280;47633;51.494;5.386;2022-12-29T06:59:32;99967.25;;;18.80;44.23
61710;BME280;47633;51.494;5.386;2022-12-29T07:01:58;99985.56;;;18.81;44.01
61710;BME280;47633;51.494;5.386;2022-12-29T07:04:23;99980.44;;;18.80;43.91
61710;BME280;47633;51.494;5.386;2022-12-29T07:06:48;99972.97;;;18.85;44.25
61710;BME280;47633;51.494;5.386;2022-12-29T07:09:14;99986.69;;;18.89;44.21
61710;BME280;47633;51.494;5.386;2022-12-29T07:11:39;99975.13;;;18.90;44.18
61710;BME280;47633;51.494;5.386;2022-12-29T07:14:04;99997.25;;;18.89;44.40
61710;BME280;47633;51.494;5.386;2022-12-29T07:16:30;99997.38;;;18.87;44.18
61710;BME280;47633;51.494;5.386;2022-12-29T07:18:56;100008.78;;;18.88;44.35
61710;BME280;47633;51.494;5.386;2022-12-29T07:21:22;100009.59;;;18.88;44.61
61710;BME280;47633;51.494;5.386;2022-12-29T07:23:47;100019.19;;;18.89;44.31
61710;BME280;47633;51.494;5.386;2022-12-29T07:26:14;100016.38;;;18.91;44.28
61710;BME280;47633;51.494;5.386;2022-12-29T07:28:42;100025.97;;;18.92;44.52
61710;BME280;47633;51.494;5.386;2022-12-29T07:31:28;100026.66;;;18.94;44.55
61710;BME280;47633;51.494;5.386;2022-12-29T07:33:54;100022.34;;;18.93;44.20
61710;BME280;47633;51.494;5.386;2022-12-29T07:36:19;100036.41;;;18.93;44.48
61710;BME280;47633;51.494;5.386;2022-12-29T07:38:44;100030.13;;;18.94;44.65
61710;BME280;47633;51.494;5.386;2022-12-29T07:41:09;100029.81;;;18.97;44.45
61710;BME280;47633;51.494;5.386;2022-12-29T07:43:35;100042.19;;;18.97;44.41
61710;BME280;47633;51.494;5.386;2022-12-29T07:46:00;100035.53;;;18.93;44.82
61710;BME280;47633;51.494;5.386;2022-12-29T07:48:26;100039.84;;;18.94;44.83
61710;BME280;47633;51.494;5.386;2022-12-29T07:50:52;100042.19;;;18.97;44.80
61710;BME280;47633;51.494;5.386;2022-12-29T07:53:18;100025.69;;;18.95;44.77
61710;BME280;47633;51.494;5.386;2022-12-29T07:55:44;100028.47;;;18.93;44.80
61710;BME280;47633;51.494;5.386;2022-12-29T07:58:09;100036.09;;;18.96;44.74
61710;BME280;47633;51.494;5.386;2022-12-29T08:00:34;100032.75;;;18.94;44.67
61710;BME280;47633;51.494;5.386;2022-12-29T08:02:59;100041.38;;;18.96;44.66
61710;BME280;47633;51.494;5.386;2022-12-29T08:05:25;100049.31;;;18.96;44.74
61710;BME280;47633;51.494;5.386;2022-12-29T08:07:50;100046.97;;;18.93;44.82
61710;BME280;47633;51.494;5.386;2022-12-29T08:10:16;100044.31;;;18.93;44.63
61710;BME280;47633;51.494;5.386;2022-12-29T08:12:42;100046.09;;;18.93;44.80
61710;BME280;47633;51.494;5.386;2022-12-29T08:15:09;100042.50;;;18.94;44.48
61710;BME280;47633;51.494;5.386;2022-12-29T08:17:35;100043.75;;;18.90;44.26
61710;BME280;47633;51.494;5.386;2022-12-29T08:20:01;100039.84;;;18.94;44.28
61710;BME280;47633;51.494;5.386;2022-12-29T08:22:26;100049.44;;;18.95;44.00
61710;BME280;47633;51.494;5.386;2022-12-29T08:24:52;100054.44;;;18.98;43.64
61710;BME280;47633;51.494;5.386;2022-12-29T08:27:17;100062.34;;;18.98;43.53
61710;BME280;47633;51.494;5.386;2022-12-29T08:29:43;100051.50;;;19.01;43.82
61710;BME280;47633;51.494;5.386;2022-12-29T08:32:08;100059.88;;;18.96;43.79
61710;BME280;47633;51.494;5.386;2022-12-29T08:34:33;100054.97;;;19.01;43.84
61710;BME280;47633;51.494;5.386;2022-12-29T08:36:59;100054.44;;;18.98;43.78
61710;BME280;47633;51.494;5.386;2022-12-29T08:39:24;100057.91;;;18.98;43.60
61710;BME280;47633;51.494;5.386;2022-12-29T08:41:49;100060.53;;;18.98;43.52
61710;BME280;47633;51.494;5.386;2022-12-29T08:44:15;100047.63;;;18.95;43.62
61710;BME280;47633;51.494;5.386;2022-12-29T08:46:40;100046.03;;;19.02;43.65
61710;BME280;47633;51.494;5.386;2022-12-29T08:49:06;100063.03;;;19.00;43.43
61710;BME280;47633;51.494;5.386;2022-12-29T08:51:31;100052.47;;;19.00;43.63
61710;BME280;47633;51.494;5.386;2022-12-29T08:53:56;100047.34;;;18.98;43.03
61710;BME280;47633;51.494;5.386;2022-12-29T08:56:22;100045.88;;;19.04;43.08
61710;BME280;47633;51.494;5.386;2022-12-29T08:58:49;100067.72;;;19.06;43.18
61710;BME280;47633;51.494;5.386;2022-12-29T09:01:14;100059.78;;;19.06;43.33
61710;BME280;47633;51.494;5.386;2022-12-29T09:03:40;100060.63;;;19.07;43.34
61710;BME280;47633;51.494;5.386;2022-12-29T09:06:05;100057.97;;;19.07;43.20
61710;BME280;47633;51.494;5.386;2022-12-29T09:08:30;100060.75;;;19.05;43.28
61710;BME280;47633;51.494;5.386;2022-12-29T09:11:12;100071.31;;;19.05;43.41
61710;BME280;47633;51.494;5.386;2022-12-29T09:13:37;100073.66;;;19.08;43.20
61710;BME280;47633;51.494;5.386;2022-12-29T09:16:03;100080.47;;;19.11;42.97
61710;BME280;47633;51.494;5.386;2022-12-29T09:18:29;100076.00;;;19.11;43.01
61710;BME280;47633;51.494;5.386;2022-12-29T09:20:58;100067.13;;;19.12;42.82
61710;BME280;47633;51.494;5.386;2022-12-29T09:23:24;100081.00;;;19.14;42.92
61710;BME280;47633;51.494;5.386;2022-12-29T09:25:49;100097.97;;;19.12;42.75
61710;BME280;47633;51.494;5.386;2022-12-29T09:28:14;100094.78;;;19.08;42.82
61710;BME280;47633;51.494;5.386;2022-12-29T09:30:41;100105.06;;;19.11;43.01
61710;BME280;47633;51.494;5.386;2022-12-29T09:33:06;100104.91;;;19.13;42.93
61710;BME280;47633;51.494;5.386;2022-12-29T09:35:31;100102.56;;;19.10;42.85
61710;BME280;47633;51.494;5.386;2022-12-29T09:37:57;100103.09;;;19.13;42.97
61710;BME280;47633;51.494;5.386;2022-12-29T09:40:30;100102.13;;;19.14;42.91
61710;BME280;47633;51.494;5.386;2022-12-29T09:43:38;100110.28;;;19.21;43.02
61710;BME280;47633;51.494;5.386;2022-12-29T09:48:40;100124.94;;;19.15;43.05
61710;BME280;47633;51.494;5.386;2022-12-29T09:51:14;100133.16;;;19.12;43.06
61710;BME280;47633;51.494;5.386;2022-12-29T09:56:37;100144.38;;;19.14;42.82
61710;BME280;47633;51.494;5.386;2022-12-29T09:59:16;100147.69;;;19.16;42.93
61710;BME280;47633;51.494;5.386;2022-12-29T10:01:51;100159.41;;;19.14;43.02
61710;BME280;47633;51.494;5.386;2022-12-29T10:04:18;100149.16;;;19.11;42.88
61710;BME280;47633;51.494;5.386;2022-12-29T10:06:53;100166.63;;;19.12;43.11
61710;BME280;47633;51.494;5.386;2022-12-29T10:17:22;100192.75;;;19.15;43.12
61710;BME280;47633;51.494;5.386;2022-12-29T10:25:25;100206.84;;;19.06;43.13
61710;BME280;47633;51.494;5.386;2022-12-29T10:27:53;100216.44;;;19.07;43.52
61710;BME280;47633;51.494;5.386;2022-12-29T10:30:20;100208.34;;;19.08;43.16
61710;BME280;47633;51.494;5.386;2022-12-29T10:32:51;100225.88;;;19.09;43.36
61710;BME280;47633;51.494;5.386;2022-12-29T10:37:51;100223.69;;;19.05;43.17
61710;BME280;47633;51.494;5.386;2022-12-29T10:40:24;100229.50;;;19.08;43.19
61710;BME280;47633;51.494;5.386;2022-12-29T10:42:53;100230.75;;;19.04;43.19
61710;BME280;47633;51.494;5.386;2022-12-29T10:45:22;100247.44;;;19.05;43.19
61710;BME280;47633;51.494;5.386;2022-12-29T10:47:59;100239.81;;;19.01;43.27
61710;BME280;47633;51.494;5.386;2022-12-29T10:50:27;100253.16;;;19.00;43.18
61710;BME280;47633;51.494;5.386;2022-12-29T10:52:56;100250.66;;;18.98;43.43
61710;BME280;47633;51.494;5.386;2022-12-29T10:55:27;100255.78;;;19.00;43.57
61710;BME280;47633;51.494;5.386;2022-12-29T10:57:54;100252.47;;;18.98;43.33
61710;BME280;47633;51.494;5.386;2022-12-29T11:00:22;100286.09;;;18.96;43.40
61710;BME280;47633;51.494;5.386;2022-12-29T11:05:52;100282.47;;;18.97;43.46
61710;BME280;47633;51.494;5.386;2022-12-29T11:08:25;100283.59;;;18.94;43.80
61710;BME280;47633;51.494;5.386;2022-12-29T11:11:06;100285.56;;;18.92;43.88
61710;BME280;47633;51.494;5.386;2022-12-29T11:13:34;100268.88;;;18.92;43.76
61710;BME280;47633;51.494;5.386;2022-12-29T11:16:00;100284.03;;;18.90;43.85
61710;BME280;47633;51.494;5.386;2022-12-29T11:18:31;100288.34;;;18.91;43.94
61710;BME280;47633;51.494;5.386;2022-12-29T11:20:59;100287.22;;;18.93;43.92
61710;BME280;47633;51.494;5.386;2022-12-29T11:23:32;100291.81;;;18.91;44.00
61710;BME280;47633;51.494;5.386;2022-12-29T11:28:43;100296.13;;;18.92;44.05
61710;BME280;47633;51.494;5.386;2022-12-29T11:31:09;100296.25;;;18.91;44.02
61710;BME280;47633;51.494;5.386;2022-12-29T11:33:37;100293.91;;;18.88;44.26
61710;BME280;47633;51.494;5.386;2022-12-29T11:36:08;100305.16;;;18.90;44.23
61710;BME280;47633;51.494;5.386;2022-12-29T11:38:39;100304.56;;;18.96;44.11
61710;BME280;47633;51.494;5.386;2022-12-29T11:41:06;100303.34;;;18.90;44.30
61710;BME280;47633;51.494;5.386;2022-12-29T11:43:41;100303.50;;;18.89;44.37
61710;BME280;47633;51.494;5.386;2022-12-29T11:46:15;100311.28;;;18.90;44.45
61710;BME280;47633;51.494;5.386;2022-12-29T11:48:42;100322.53;;;18.92;44.37
61710;BME280;47633;51.494;5.386;2022-12-29T11:51:08;100315.84;;;18.88;44.41
61710;BME280;47633;51.494;5.386;2022-12-29T11:53:50;100317.53;;;18.89;44.52
61710;BME280;47633;51.494;5.386;2022-12-29T11:56:19;100308.50;;;18.92;44.41
61710;BME280;47633;51.494;5.386;2022-12-29T11:58:49;100321.56;;;18.93;44.59
61710;BME280;47633;51.494;5.386;2022-12-29T12:01:19;100321.00;;;18.90;44.54
61710;BME280;47633;51.494;5.386;2022-12-29T12:04:12;100328.75;;;18.91;44.55
61710;BME280;47633;51.494;5.386;2022-12-29T12:09:26;100314.06;;;18.89;44.39
61710;BME280;47633;51.494;5.386;2022-12-29T12:11:55;100322.13;;;18.87;44.27
61710;BME280;47633;51.494;5.386;2022-12-29T12:17:00;100315.56;;;18.81;44.43
61710;BME280;47633;51.494;5.386;2022-12-29T12:19:53;100325.72;;;18.86;44.53
61710;BME280;47633;51.494;5.386;2022-12-29T12:22:27;100327.94;;;18.91;44.13
61710;BME280;47633;51.494;5.386;2022-12-29T12:25:03;100322.66;;;18.81;44.35
61710;BME280;47633;51.494;5.386;2022-12-29T12:27:57;100321.69;;;18.82;44.27
61710;BME280;47633;51.494;5.386;2022-12-29T12:30:27;100324.19;;;18.83;44.37
61710;BME280;47633;51.494;5.386;2022-12-29T12:33:29;100326.81;;;18.83;44.50
61710;BME280;47633;51.494;5.386;2022-12-29T12:36:22;100328.50;;;18.84;44.50
61710;BME280;47633;51.494;5.386;2022-12-29T12:39:01;100316.56;;;18.80;44.46
61710;BME280;47633;51.494;5.386;2022-12-29T12:44:27;100320.16;;;18.79;44.28
61710;BME280;47633;51.494;5.386;2022-12-29T12:47:05;100321.81;;;18.80;44.17
61710;BME280;47633;51.494;5.386;2022-12-29T12:52:25;100331.41;;;18.81;44.06
61710;BME280;47633;51.494;5.386;2022-12-29T12:55:06;100332.38;;;18.80;43.80
61710;BME280;47633;51.494;5.386;2022-12-29T12:58:00;100343.78;;;18.81;43.89
61710;BME280;47633;51.494;5.386;2022-12-29T13:09:25;100343.91;;;18.79;43.90
61710;BME280;47633;51.494;5.386;2022-12-29T13:12:18;100345.88;;;18.77;44.06
61710;BME280;47633;51.494;5.386;2022-12-29T13:23:34;100362.25;;;18.71;44.10
61710;BME280;47633;51.494;5.386;2022-12-29T13:26:35;100372.81;;;18.81;44.05
61710;BME280;47633;51.494;5.386;2022-12-29T13:29:26;100371.41;;;18.77;44.27
61710;BME280;47633;51.494;5.386;2022-12-29T13:34:53;100380.06;;;18.79;44.58
61710;BME280;47633;51.494;5.386;2022-12-29T13:37:25;100371.72;;;18.83;44.36
61710;BME280;47633;51.494;5.386;2022-12-29T13:39:55;100380.34;;;18.85;44.55
61710;BME280;47633;51.494;5.386;2022-12-29T13:42:22;100391.31;;;18.91;44.70
61710;BME280;47633;51.494;5.386;2022-12-29T13:45:13;100383.94;;;18.94;44.90
61710;BME280;47633;51.494;5.386;2022-12-29T13:47:45;100391.03;;;18.94;44.78
61710;BME280;47633;51.494;5.386;2022-12-29T13:50:19;100382.56;;;19.00;44.86
61710;BME280;47633;51.494;5.386;2022-12-29T13:52:53;100379.63;;;19.03;44.99
61710;BME280;47633;51.494;5.386;2022-12-29T13:55:29;100377.94;;;19.02;45.04
61710;BME280;47633;51.494;5.386;2022-12-29T14:06:16;100393.22;;;19.08;44.96
61710;BME280;47633;51.494;5.386;2022-12-29T14:08:44;100392.81;;;19.13;44.82
61710;BME280;47633;51.494;5.386;2022-12-29T14:11:10;100390.16;;;19.13;45.12
61710;BME280;47633;51.494;5.386;2022-12-29T14:13:41;100387.66;;;19.11;45.07
61710;BME280;47633;51.494;5.386;2022-12-29T14:16:11;100398.09;;;19.13;45.12
61710;BME280;47633;51.494;5.386;2022-12-29T14:18:48;100408.09;;;19.19;45.01
61710;BME280;47633;51.494;5.386;2022-12-29T14:23:44;100395.44;;;19.13;45.30
61710;BME280;47633;51.494;5.386;2022-12-29T14:26:11;100389.06;;;19.15;45.16
61710;BME280;47633;51.494;5.386;2022-12-29T14:28:45;100382.38;;;19.11;45.06
61710;BME280;47633;51.494;5.386;2022-12-29T14:33:41;100392.66;;;19.14;44.97
61710;BME280;47633;51.494;5.386;2022-12-29T14:38:46;100393.63;;;19.13;45.28
61710;BME280;47633;51.494;5.386;2022-12-29T14:41:18;100402.56;;;19.12;45.04
61710;BME280;47633;51.494;5.386;2022-12-29T14:44:16;100411.84;;;19.16;44.98